createdAt,value
2022-12-23T08:05:27.071Z,9.16
2022-12-23T08:06:27.682Z,9.15
2022-12-23T08:07:27.748Z,9.19
2022-12-23T08:08:27.670Z,9.17
2022-12-23T08:09:27.760Z,9.16
2022-12-23T08:10:27.674Z,9.15
2022-12-23T08:11:27.777Z,9.15
2022-12-23T08:12:27.625Z,9.15
2022-12-23T08:13:27.796Z,9.15
2022-12-23T08:14:27.597Z,9.15
2022-12-23T08:15:27.833Z,9.16
2022-12-23T08:16:27.699Z,9.13
2022-12-23T08:17:27.820Z,9.13
2022-12-23T08:18:27.547Z,9.13
2022-12-23T08:19:27.777Z,9.10
2022-12-23T08:20:27.551Z,9.15
2022-12-23T08:21:27.849Z,9.13
2022-12-23T08:22:27.577Z,9.13
2022-12-23T08:23:27.770Z,9.15
2022-12-23T08:24:27.549Z,9.16
2022-12-23T08:25:27.497Z,9.17
2022-12-23T08:26:27.604Z,9.19
2022-12-23T08:27:27.486Z,9.16
2022-12-23T08:28:27.693Z,9.16
2022-12-23T08:29:31.307Z,9.17
2022-12-23T08:30:27.457Z,9.15
2022-12-23T08:31:27.789Z,9.15
2022-12-23T08:32:27.450Z,9.15
2022-12-23T08:33:27.686Z,9.16
2022-12-23T08:34:27.399Z,9.17
2022-12-23T08:35:28.559Z,9.17
2022-12-23T08:36:27.389Z,9.16
2022-12-23T08:37:29.662Z,9.16
2022-12-23T08:38:27.339Z,9.17
2022-12-23T08:39:27.580Z,9.16
2022-12-23T08:40:27.314Z,9.15
2022-12-23T08:41:50.664Z,9.16
2022-12-23T08:42:27.317Z,9.16
2022-12-23T08:43:31.962Z,9.16
2022-12-23T08:44:27.273Z,9.15
2022-12-23T08:45:28.545Z,9.16
2022-12-23T08:46:27.438Z,9.15
2022-12-23T08:47:27.341Z,9.16
2022-12-23T08:48:27.242Z,9.16
2022-12-23T08:49:29.398Z,9.17
2022-12-23T08:50:27.225Z,9.17
2022-12-23T08:51:27.363Z,9.19
2022-12-23T08:52:27.235Z,9.19
2022-12-23T08:53:27.249Z,9.20
2022-12-23T08:54:27.159Z,9.22
2022-12-23T08:55:27.374Z,9.23
2022-12-23T08:56:27.191Z,9.23
2022-12-23T08:57:27.304Z,9.24
2022-12-23T08:58:27.135Z,9.26
2022-12-23T08:59:27.303Z,9.27
2022-12-23T09:00:27.310Z,9.26
2022-12-23T09:01:27.308Z,9.27
2022-12-23T09:02:29.661Z,9.26
2022-12-23T09:03:27.247Z,9.26
2022-12-23T09:04:27.339Z,9.26
2022-12-23T09:05:32.288Z,9.26
2022-12-23T09:06:30.007Z,9.26
2022-12-23T09:07:32.310Z,9.24
2022-12-23T09:08:27.033Z,9.23
2022-12-23T09:09:30.261Z,9.23
2022-12-23T09:10:29.216Z,9.23
2022-12-23T09:11:26.999Z,9.23
2022-12-23T09:12:29.226Z,9.22
2022-12-23T09:13:34.860Z,9.24
2022-12-23T09:14:26.998Z,9.23
2022-12-23T09:15:31.475Z,9.24
2022-12-23T09:16:27.023Z,9.24
2022-12-23T09:17:47.999Z,9.24
2022-12-23T09:18:26.916Z,9.26
2022-12-23T09:19:52.750Z,9.24
2022-12-23T09:20:27.007Z,9.24
2022-12-23T09:21:26.868Z,9.24
2022-12-23T09:22:26.936Z,9.24
2022-12-23T09:23:26.841Z,9.24
2022-12-23T09:24:26.983Z,9.26
2022-12-23T09:25:26.852Z,9.23
2022-12-23T09:26:48.060Z,9.24
2022-12-23T09:27:26.810Z,9.24
2022-12-23T09:28:26.888Z,9.24
2022-12-23T09:29:26.808Z,9.23
2022-12-23T09:30:26.895Z,9.23
2022-12-23T09:31:30.800Z,9.22
2022-12-23T09:32:26.759Z,9.22
2022-12-23T09:33:27.939Z,9.20
2022-12-23T09:34:26.738Z,9.20
2022-12-23T09:35:26.924Z,9.19
2022-12-23T09:36:26.732Z,9.20
2022-12-23T09:37:26.979Z,9.20
2022-12-23T09:38:26.684Z,9.20
2022-12-23T09:39:26.790Z,9.20
2022-12-23T09:40:26.665Z,9.20
2022-12-23T09:41:26.780Z,9.19
2022-12-23T09:42:26.675Z,9.17
2022-12-23T09:43:26.831Z,9.20
2022-12-23T09:44:26.618Z,9.20
2022-12-23T09:45:26.696Z,9.23
2022-12-23T09:46:26.679Z,9.22
2022-12-23T09:47:26.761Z,9.22
2022-12-23T09:48:26.582Z,9.24
2022-12-23T09:49:26.718Z,9.22
2022-12-23T09:50:26.583Z,9.23
2022-12-23T09:51:26.743Z,9.22
2022-12-23T09:52:26.571Z,9.22
2022-12-23T09:53:26.745Z,9.22
2022-12-23T09:54:26.536Z,9.22
2022-12-23T09:55:26.754Z,9.20
2022-12-23T09:56:26.517Z,9.20
2022-12-23T09:57:26.589Z,9.22
2022-12-23T09:58:26.503Z,9.23
2022-12-23T09:59:26.585Z,9.22
2022-12-23T10:00:26.467Z,9.22
2022-12-23T10:01:48.868Z,9.23
2022-12-23T10:02:26.702Z,9.23
2022-12-23T10:03:47.667Z,9.22
2022-12-23T10:04:26.482Z,9.22
2022-12-23T10:05:47.525Z,9.26
2022-12-23T10:06:47.526Z,9.24
2022-12-23T10:07:26.371Z,9.30
2022-12-23T10:08:26.402Z,9.27
2022-12-23T10:09:26.446Z,9.31
2022-12-23T10:10:26.357Z,9.32
2022-12-23T10:11:26.460Z,9.32
2022-12-23T10:12:28.864Z,9.35
2022-12-23T10:13:26.524Z,9.37
2022-12-23T10:14:26.298Z,9.37
2022-12-23T10:15:26.486Z,9.38
2022-12-23T10:16:26.354Z,9.38
2022-12-23T10:17:26.528Z,9.42
2022-12-23T10:18:26.625Z,9.42
2022-12-23T10:19:26.316Z,9.45
2022-12-23T10:20:26.243Z,9.42
2022-12-23T10:21:26.332Z,9.44
2022-12-23T10:22:26.231Z,9.44
2022-12-23T10:23:26.344Z,9.44
2022-12-23T10:24:26.236Z,9.42
2022-12-23T10:25:26.384Z,9.42
2022-12-23T10:26:26.234Z,9.41
2022-12-23T10:27:26.369Z,9.40
2022-12-23T10:28:29.570Z,9.38
2022-12-23T10:29:26.390Z,9.35
2022-12-23T10:30:56.852Z,9.34
2022-12-23T10:31:41.873Z,9.35
2022-12-23T10:32:26.251Z,9.32
2022-12-23T10:33:26.313Z,9.31
2022-12-23T10:34:26.107Z,9.27
2022-12-23T10:35:26.316Z,9.27
2022-12-23T10:36:26.171Z,9.24
2022-12-23T10:37:47.252Z,9.24
2022-12-23T10:38:26.046Z,9.24
2022-12-23T10:39:26.180Z,9.26
2022-12-23T10:40:26.034Z,9.26
2022-12-23T10:41:27.225Z,9.26
2022-12-23T10:42:26.005Z,9.26
2022-12-23T10:43:27.256Z,9.27
2022-12-23T10:44:25.987Z,9.27
2022-12-23T10:45:26.097Z,9.31
2022-12-23T10:46:26.032Z,9.31
2022-12-23T10:47:48.238Z,9.32
2022-12-23T10:48:25.951Z,9.34
2022-12-23T10:49:25.923Z,9.35
2022-12-23T10:50:28.216Z,9.37
2022-12-23T10:51:25.911Z,9.35
2022-12-23T10:52:47.027Z,9.34
2022-12-23T10:53:25.898Z,9.34
2022-12-23T10:54:25.942Z,9.30
2022-12-23T10:55:31.291Z,9.26
2022-12-23T10:56:25.921Z,9.24
2022-12-23T10:57:26.091Z,9.23
2022-12-23T10:58:25.907Z,9.22
2022-12-23T10:59:25.910Z,9.20
2022-12-23T11:00:25.899Z,9.22
2022-12-23T11:01:27.342Z,9.24
2022-12-23T11:02:25.977Z,9.20
2022-12-23T11:03:26.176Z,9.23
2022-12-23T11:04:25.783Z,9.24
2022-12-23T11:05:25.855Z,9.22
2022-12-23T11:06:27.919Z,9.23
2022-12-23T11:08:25.749Z,9.23
2022-12-23T11:09:25.731Z,9.27
2022-12-23T11:10:25.882Z,9.27
2022-12-23T11:11:25.705Z,9.30
2022-12-23T11:12:25.871Z,9.31
2022-12-23T11:13:25.695Z,9.31
2022-12-23T11:14:25.877Z,9.31
2022-12-23T11:15:25.695Z,9.32
2022-12-23T11:16:25.955Z,9.30
2022-12-23T11:17:26.628Z,9.30
2022-12-23T11:18:26.769Z,9.26
2022-12-23T11:19:25.630Z,9.24
2022-12-23T11:20:25.729Z,9.22
2022-12-23T11:21:25.628Z,9.22
2022-12-23T11:22:25.746Z,9.20
2022-12-23T11:23:25.578Z,9.17
2022-12-23T11:24:25.751Z,9.16
2022-12-23T11:25:25.577Z,9.13
2022-12-23T11:26:25.806Z,9.10
2022-12-23T11:27:25.535Z,9.08
2022-12-23T11:28:25.786Z,9.08
2022-12-23T11:29:25.519Z,9.08
2022-12-23T11:30:25.618Z,9.04
2022-12-23T11:31:25.524Z,9.04
2022-12-23T11:32:25.609Z,9.03
2022-12-23T11:33:25.475Z,9.03
2022-12-23T11:34:47.580Z,9.03
2022-12-23T11:35:25.500Z,9.03
2022-12-23T11:36:25.677Z,9.03
2022-12-23T11:37:27.126Z,9.01
2022-12-23T11:38:25.660Z,9.00
2022-12-23T11:39:25.385Z,9.01
2022-12-23T11:40:25.661Z,8.98
2022-12-23T11:41:25.409Z,9.00
2022-12-23T11:42:25.470Z,8.98
2022-12-23T11:43:25.368Z,8.98
2022-12-23T11:44:25.438Z,8.97
2022-12-23T11:45:25.390Z,8.98
2022-12-23T11:46:25.656Z,8.97
2022-12-23T11:47:25.331Z,8.97
2022-12-23T11:48:25.578Z,8.97
2022-12-23T11:49:25.315Z,8.96
2022-12-23T11:50:25.572Z,8.94
2022-12-23T11:51:25.282Z,8.98
2022-12-23T11:52:25.359Z,8.97
2022-12-23T11:53:25.339Z,8.97
2022-12-23T11:54:25.235Z,8.97
2022-12-23T11:55:25.471Z,8.98
2022-12-23T11:56:25.288Z,8.96
2022-12-23T11:57:25.473Z,8.96
2022-12-23T11:58:25.393Z,8.94
2022-12-23T11:59:25.640Z,8.94
2022-12-23T12:00:25.391Z,8.91
2022-12-23T12:01:25.238Z,8.91
2022-12-23T12:02:25.490Z,8.89
2022-12-23T12:03:27.460Z,8.89
2022-12-23T12:04:25.190Z,8.91
2022-12-23T12:05:25.357Z,8.89
2022-12-23T12:06:25.118Z,8.93
2022-12-23T12:07:26.294Z,8.93
2022-12-23T12:08:25.123Z,8.91
2022-12-23T12:09:25.352Z,8.93
2022-12-23T12:10:25.085Z,8.91
2022-12-23T12:11:25.278Z,8.89
2022-12-23T12:12:25.063Z,8.91
2022-12-23T12:13:25.293Z,8.89
2022-12-23T12:14:25.155Z,8.89
2022-12-23T12:15:25.304Z,8.89
2022-12-23T12:16:25.060Z,8.89
2022-12-23T12:17:25.110Z,8.94
2022-12-23T12:18:25.027Z,8.94
2022-12-23T12:19:25.117Z,8.98
2022-12-23T12:20:24.969Z,9.00
2022-12-23T12:21:25.026Z,9.03
2022-12-23T12:22:24.945Z,9.03
2022-12-23T12:23:25.072Z,9.01
2022-12-23T12:24:25.131Z,9.01
2022-12-23T12:25:25.077Z,8.97
2022-12-23T12:26:24.922Z,8.98
2022-12-23T12:27:25.087Z,8.97
2022-12-23T12:28:25.361Z,8.96
2022-12-23T12:29:25.133Z,8.94
2022-12-23T12:30:24.943Z,8.91
2022-12-23T12:31:25.048Z,8.91
2022-12-23T12:32:24.841Z,8.89
2022-12-23T12:33:25.086Z,8.89
2022-12-23T12:34:24.845Z,8.91
2022-12-23T12:35:25.948Z,8.91
2022-12-23T12:36:24.892Z,8.91
2022-12-23T12:37:24.937Z,8.94
2022-12-23T12:38:24.763Z,8.97
2022-12-23T12:39:24.877Z,8.96
2022-12-23T12:40:24.781Z,8.97
2022-12-23T12:41:24.874Z,8.98
2022-12-23T12:42:24.734Z,8.97
2022-12-23T12:43:24.993Z,8.96
2022-12-23T12:44:24.743Z,8.96
2022-12-23T12:45:24.895Z,8.94
2022-12-23T12:46:24.754Z,8.94
2022-12-23T12:48:24.676Z,8.91
2022-12-23T12:49:24.922Z,8.88
2022-12-23T12:50:24.675Z,8.85
2022-12-23T12:51:24.740Z,8.82
2022-12-23T12:52:24.628Z,8.82
2022-12-23T12:53:24.983Z,8.79
2022-12-23T12:54:24.762Z,8.76
2022-12-23T12:55:24.591Z,8.76
2022-12-23T12:56:24.766Z,8.73
2022-12-23T12:57:24.588Z,8.71
2022-12-23T12:58:29.829Z,8.73
2022-12-23T12:59:26.735Z,8.71
2022-12-23T13:00:24.553Z,8.70
2022-12-23T13:01:25.784Z,8.70
2022-12-23T13:02:24.574Z,8.70
2022-12-23T13:03:24.804Z,8.70
2022-12-23T13:04:24.479Z,8.70
2022-12-23T13:05:24.665Z,8.70
2022-12-23T13:06:24.477Z,8.70
2022-12-23T13:07:24.641Z,8.67
2022-12-23T13:08:24.460Z,8.67
2022-12-23T13:09:24.558Z,8.68
2022-12-23T13:10:24.426Z,8.68
2022-12-23T13:11:28.369Z,8.65
2022-12-23T13:12:24.399Z,8.68
2022-12-23T13:13:24.760Z,8.67
2022-12-23T13:14:24.396Z,8.68
2022-12-23T13:15:24.593Z,8.67
2022-12-23T13:16:24.417Z,8.68
2022-12-23T13:17:24.637Z,8.67
2022-12-23T13:18:24.339Z,8.68
2022-12-23T13:19:24.431Z,8.70
2022-12-23T13:20:24.303Z,8.70
2022-12-23T13:21:24.445Z,8.68
2022-12-23T13:22:24.307Z,8.68
2022-12-23T13:24:24.456Z,8.68
2022-12-23T13:25:24.276Z,8.71
2022-12-23T13:26:25.511Z,8.73
2022-12-23T13:27:24.263Z,8.73
2022-12-23T13:28:24.484Z,8.78
2022-12-23T13:29:24.223Z,8.76
2022-12-23T13:30:24.515Z,8.78
2022-12-23T13:31:24.217Z,8.78
2022-12-23T13:32:24.420Z,8.76
2022-12-23T13:33:24.257Z,8.78
2022-12-23T13:34:24.427Z,8.75
2022-12-23T13:35:24.137Z,8.76
2022-12-23T13:36:25.600Z,8.76
2022-12-23T13:37:24.133Z,8.78
2022-12-23T13:38:24.246Z,8.79
2022-12-23T13:39:24.107Z,8.76
2022-12-23T13:40:24.254Z,8.78
2022-12-23T13:41:24.150Z,8.79
2022-12-23T13:42:24.279Z,8.79
2022-12-23T13:43:24.050Z,8.78
2022-12-23T13:44:24.272Z,8.80
2022-12-23T13:45:24.035Z,8.79
2022-12-23T13:46:24.382Z,8.80
2022-12-23T13:47:24.016Z,8.80
2022-12-23T13:48:26.986Z,8.82
2022-12-23T13:49:24.023Z,8.82
2022-12-23T13:50:26.389Z,8.82
2022-12-23T13:51:23.971Z,8.82
2022-12-23T13:52:25.315Z,8.80
2022-12-23T13:53:23.948Z,8.80
2022-12-23T13:54:24.087Z,8.80
2022-12-23T13:55:24.064Z,8.79
2022-12-23T13:56:23.917Z,8.80
2022-12-23T13:57:24.101Z,8.82
2022-12-23T13:58:23.911Z,8.82
2022-12-23T13:59:24.074Z,8.86
2022-12-23T14:00:24.180Z,8.83
2022-12-23T14:01:23.907Z,8.85
2022-12-23T14:02:24.125Z,8.88
2022-12-23T14:03:23.880Z,8.89
2022-12-23T14:04:24.194Z,8.93
2022-12-23T14:05:23.820Z,8.94
2022-12-23T14:06:23.999Z,9.00
2022-12-23T14:07:23.828Z,9.04
2022-12-23T14:08:23.963Z,9.10
2022-12-23T14:09:23.784Z,9.16
2022-12-23T14:10:23.960Z,9.17
2022-12-23T14:11:23.769Z,9.17
2022-12-23T14:12:24.001Z,9.20
2022-12-23T14:13:23.779Z,9.24
2022-12-23T14:14:23.987Z,9.30
2022-12-23T14:15:23.766Z,9.35
2022-12-23T14:16:24.027Z,9.38
2022-12-23T14:17:23.712Z,9.40
2022-12-23T14:18:23.910Z,9.45
2022-12-23T14:19:23.717Z,9.50
2022-12-23T14:20:23.964Z,9.56
2022-12-23T14:21:23.662Z,9.62
2022-12-23T14:22:23.927Z,9.68
2022-12-23T14:23:23.644Z,9.71
2022-12-23T14:24:23.809Z,9.74
2022-12-23T14:25:23.618Z,9.75
2022-12-23T14:26:23.768Z,9.74
2022-12-23T14:27:23.615Z,9.74
2022-12-23T14:28:23.796Z,9.77
2022-12-23T14:29:23.575Z,9.81
2022-12-23T14:30:44.857Z,9.83
2022-12-23T14:31:23.652Z,9.86
2022-12-23T14:32:25.805Z,9.83
2022-12-23T14:33:23.535Z,9.85
2022-12-23T14:34:23.732Z,9.89
2022-12-23T14:35:23.511Z,9.95
2022-12-23T14:36:24.870Z,10.01
2022-12-23T14:37:23.477Z,10.04
2022-12-23T14:38:26.959Z,10.07
2022-12-23T14:39:23.471Z,10.14
2022-12-23T14:40:45.599Z,10.20
2022-12-23T14:41:33.533Z,10.26
2022-12-23T14:42:23.461Z,10.36
2022-12-23T14:43:44.627Z,10.42
2022-12-23T14:44:23.404Z,10.42
2022-12-23T14:45:23.417Z,10.49
2022-12-23T14:46:23.539Z,10.57
2022-12-23T14:47:23.411Z,10.58
2022-12-23T14:48:23.520Z,10.58
2022-12-23T14:49:39.667Z,10.63
2022-12-23T14:50:23.352Z,10.72
2022-12-23T14:51:23.556Z,10.76
2022-12-23T14:52:23.327Z,10.86
2022-12-23T14:53:23.496Z,10.88
2022-12-23T14:54:23.320Z,10.90
2022-12-23T14:55:31.897Z,10.91
2022-12-23T14:56:23.313Z,10.91
2022-12-23T14:57:23.393Z,10.91
2022-12-23T14:58:23.295Z,10.93
2022-12-23T14:59:23.396Z,10.98
2022-12-23T15:00:23.258Z,10.99
2022-12-23T15:01:23.432Z,11.01
2022-12-23T15:02:23.377Z,10.99
2022-12-23T15:03:23.656Z,11.02
2022-12-23T15:04:23.260Z,10.98
2022-12-23T15:05:23.430Z,10.98
2022-12-23T15:06:23.178Z,10.99
2022-12-23T15:07:23.436Z,11.03
2022-12-23T15:08:23.156Z,11.02
2022-12-23T15:09:23.247Z,11.02
2022-12-23T15:10:23.195Z,10.98
2022-12-23T15:11:23.261Z,10.99
2022-12-23T15:12:27.839Z,11.02
2022-12-23T15:13:23.131Z,11.05
2022-12-23T15:14:23.287Z,11.13
2022-12-23T15:15:23.077Z,11.17
2022-12-23T15:16:23.353Z,11.16
2022-12-23T15:17:23.300Z,11.11
2022-12-23T15:18:23.063Z,11.09
2022-12-23T15:19:23.357Z,11.12
2022-12-23T15:20:23.050Z,11.12
2022-12-23T15:21:23.125Z,11.12
2022-12-23T15:22:30.370Z,11.12
2022-12-23T15:23:23.028Z,11.13
2022-12-23T15:24:23.211Z,11.12
2022-12-23T15:25:23.015Z,11.06
2022-12-23T15:26:23.172Z,11.08
2022-12-23T15:27:28.271Z,11.12
2022-12-23T15:28:22.969Z,11.09
2022-12-23T15:29:23.090Z,11.12
2022-12-23T15:30:22.949Z,11.12
2022-12-23T15:31:23.146Z,11.12
2022-12-23T15:32:22.914Z,11.09
2022-12-23T15:34:00.529Z,11.06
2022-12-23T15:34:22.909Z,11.11
2022-12-23T15:35:23.168Z,11.09
2022-12-23T15:36:22.898Z,11.11
2022-12-23T15:37:23.139Z,11.13
2022-12-23T15:38:22.847Z,11.09
2022-12-23T15:39:23.974Z,11.05
2022-12-23T15:40:22.815Z,10.99
2022-12-23T15:41:25.048Z,11.01
2022-12-23T15:42:22.796Z,11.03
2022-12-23T15:43:24.014Z,11.05
2022-12-23T15:44:22.788Z,11.06
2022-12-23T15:45:24.062Z,11.08
2022-12-23T15:46:29.020Z,11.09
2022-12-23T15:47:22.841Z,11.08
2022-12-23T15:48:24.048Z,11.09
2022-12-23T15:49:22.714Z,11.11
2022-12-23T15:50:22.826Z,11.11
2022-12-23T15:51:49.526Z,11.16
2022-12-23T15:52:22.793Z,11.19
2022-12-23T15:53:22.951Z,11.21
2022-12-23T15:54:22.675Z,11.24
2022-12-23T15:55:22.960Z,11.26
2022-12-23T15:56:22.724Z,11.28
2022-12-23T15:57:22.764Z,11.26
2022-12-23T15:58:22.646Z,11.26
2022-12-23T15:59:22.781Z,11.27
2022-12-23T16:00:22.605Z,11.27
2022-12-23T16:01:22.859Z,11.24
2022-12-23T16:02:58.987Z,11.23
2022-12-23T16:03:22.975Z,11.20
2022-12-23T16:04:22.704Z,11.23
2022-12-23T16:05:22.833Z,11.24
2022-12-23T16:06:22.607Z,11.21
2022-12-23T16:07:22.892Z,11.21
2022-12-23T16:08:28.551Z,11.24
2022-12-23T16:09:22.566Z,11.21
2022-12-23T16:10:22.906Z,11.23
2022-12-23T16:11:22.565Z,11.21
2022-12-23T16:12:23.915Z,11.27
2022-12-23T16:13:22.549Z,11.28
2022-12-23T16:14:22.728Z,11.26
2022-12-23T16:15:22.495Z,11.27
2022-12-23T16:16:43.847Z,11.27
2022-12-23T16:17:22.514Z,11.31
2022-12-23T16:18:22.456Z,11.31
2022-12-23T16:19:26.860Z,11.35
2022-12-23T16:20:22.461Z,11.36
2022-12-23T16:21:22.770Z,11.33
2022-12-23T16:22:22.433Z,11.35
2022-12-23T16:23:22.551Z,11.31
2022-12-23T16:24:22.561Z,11.33
2022-12-23T16:25:22.420Z,11.30
2022-12-23T16:26:22.563Z,11.28
2022-12-23T16:27:22.392Z,11.27
2022-12-23T16:30:18.947Z,11.26
2022-12-23T16:31:17.716Z,11.23
2022-12-23T16:32:18.020Z,11.21
2022-12-23T16:33:17.731Z,11.23
2022-12-23T16:35:29.632Z,11.17
2022-12-23T16:36:29.471Z,11.11
2022-12-23T16:37:51.430Z,11.12
2022-12-23T16:38:29.368Z,11.09
2022-12-23T16:39:29.510Z,11.06
2022-12-23T16:40:29.345Z,11.05
2022-12-23T16:41:29.563Z,11.05
2022-12-23T16:42:29.322Z,11.03
2022-12-23T16:43:29.547Z,11.02
2022-12-23T16:44:32.709Z,11.01
2022-12-23T16:45:29.326Z,11.01
2022-12-23T16:46:29.554Z,10.98
2022-12-23T16:47:29.264Z,10.98
2022-12-23T16:48:29.599Z,10.95
2022-12-23T16:49:33.439Z,10.93
2022-12-23T16:50:29.245Z,10.93
2022-12-23T16:51:29.492Z,10.94
2022-12-23T16:52:29.254Z,10.93
2022-12-23T16:53:29.508Z,10.93
2022-12-23T16:54:29.207Z,10.93
2022-12-23T16:55:29.427Z,10.88
2022-12-23T16:56:29.183Z,10.90
2022-12-23T16:57:29.462Z,10.91
2022-12-23T16:58:29.169Z,10.88
2022-12-23T16:59:29.437Z,10.86
2022-12-23T17:00:29.148Z,10.86
2022-12-23T17:01:29.241Z,10.87
2022-12-23T17:02:29.393Z,10.87
2022-12-23T17:03:29.131Z,10.87
2022-12-23T17:04:29.295Z,10.91
2022-12-23T17:05:29.093Z,10.91
2022-12-23T17:06:29.303Z,10.98
2022-12-23T17:07:29.099Z,10.98
2022-12-23T17:08:29.325Z,10.94
2022-12-23T17:09:29.069Z,10.93
2022-12-23T17:10:50.212Z,10.94
2022-12-23T17:11:29.034Z,10.94
2022-12-23T17:12:29.178Z,10.94
2022-12-23T17:13:29.022Z,10.87
2022-12-23T17:14:29.212Z,10.90
2022-12-23T17:15:29.164Z,10.87
2022-12-23T17:16:29.074Z,10.87
2022-12-23T17:17:29.183Z,10.84
2022-12-23T17:18:28.967Z,10.87
2022-12-23T17:19:29.728Z,10.86
2022-12-23T17:20:28.932Z,10.86
2022-12-23T17:21:29.238Z,10.86
2022-12-23T17:22:28.910Z,10.84
2022-12-23T17:23:29.042Z,10.84
2022-12-23T17:24:28.891Z,10.84
2022-12-23T17:25:29.032Z,10.84
2022-12-23T17:26:28.876Z,10.83
2022-12-23T17:27:29.038Z,10.86
2022-12-23T17:28:28.862Z,10.83
2022-12-23T17:29:29.098Z,10.83
2022-12-23T17:30:29.067Z,10.78
2022-12-23T17:31:28.852Z,10.76
2022-12-23T17:32:29.187Z,10.78
2022-12-23T17:33:28.811Z,10.78
2022-12-23T17:34:29.099Z,10.72
2022-12-23T17:35:28.940Z,10.72
2022-12-23T17:36:28.853Z,10.70
2022-12-23T17:37:29.972Z,10.70
2022-12-23T17:38:28.738Z,10.68
2022-12-23T17:39:29.020Z,10.69
2022-12-23T17:40:29.959Z,10.69
2022-12-23T17:41:28.727Z,10.69
2022-12-23T17:42:28.977Z,10.69
2022-12-23T17:43:28.717Z,10.70
2022-12-23T17:44:28.959Z,10.69
2022-12-23T17:45:28.721Z,10.70
2022-12-23T17:46:49.960Z,10.72
2022-12-23T17:47:28.668Z,10.69
2022-12-23T17:48:32.212Z,10.69
2022-12-23T17:49:28.639Z,10.68
2022-12-23T17:50:29.920Z,10.63
2022-12-23T17:51:28.622Z,10.58
2022-12-23T17:52:29.972Z,10.55
2022-12-23T17:53:28.588Z,10.51
2022-12-23T17:54:28.727Z,10.46
2022-12-23T17:55:28.607Z,10.43
2022-12-23T17:56:28.805Z,10.39
2022-12-23T17:57:28.582Z,10.38
2022-12-23T17:58:28.745Z,10.38
2022-12-23T17:59:28.544Z,10.35
2022-12-23T18:00:34.212Z,10.35
2022-12-23T18:01:28.626Z,10.32
2022-12-23T18:02:28.818Z,10.32
2022-12-23T18:03:28.518Z,10.31
2022-12-23T18:04:28.788Z,10.29
2022-12-23T18:05:28.463Z,10.29
2022-12-23T18:06:28.514Z,10.28
2022-12-23T18:07:28.435Z,10.28
2022-12-23T18:08:28.510Z,10.26
2022-12-23T18:09:28.432Z,10.22
2022-12-23T18:10:30.572Z,10.22
2022-12-23T18:11:28.404Z,10.24
2022-12-23T18:12:28.431Z,10.22
2022-12-23T18:13:28.400Z,10.18
2022-12-23T18:14:28.458Z,10.18
2022-12-23T18:15:28.384Z,10.17
2022-12-23T18:16:28.598Z,10.16
2022-12-23T18:17:28.330Z,10.16
2022-12-23T18:18:35.608Z,10.14
2022-12-23T18:19:28.345Z,10.14
2022-12-23T18:20:28.488Z,10.17
2022-12-23T18:21:28.528Z,10.18
2022-12-23T18:22:28.335Z,10.18
2022-12-23T18:23:29.457Z,10.20
2022-12-23T18:24:28.304Z,10.24
2022-12-23T18:25:28.314Z,10.24
2022-12-23T18:26:28.345Z,10.25
2022-12-23T18:27:28.242Z,10.29
2022-12-23T18:28:28.442Z,10.32
2022-12-23T18:29:28.215Z,10.35
2022-12-23T18:30:30.595Z,10.38
2022-12-23T18:31:28.425Z,10.36
2022-12-23T18:32:28.192Z,10.38
2022-12-23T18:33:28.275Z,10.39
2022-12-23T18:34:28.169Z,10.38
2022-12-23T18:35:29.319Z,10.42
2022-12-23T18:36:28.526Z,10.43
2022-12-23T18:37:28.143Z,10.43
2022-12-23T18:38:49.206Z,10.38
2022-12-23T18:39:28.123Z,10.39
2022-12-23T18:40:49.238Z,10.39
2022-12-23T18:41:28.115Z,10.38
2022-12-23T18:42:28.086Z,10.36
2022-12-23T18:43:28.154Z,10.34
2022-12-23T18:44:28.100Z,10.36
2022-12-23T18:45:28.165Z,10.35
2022-12-23T18:46:28.096Z,10.39
2022-12-23T18:47:28.333Z,10.39
2022-12-23T18:48:28.054Z,10.35
2022-12-23T18:49:28.097Z,10.32
2022-12-23T18:50:28.034Z,10.29
2022-12-23T18:51:28.107Z,10.31
2022-12-23T18:52:28.027Z,10.31
2022-12-23T18:53:28.282Z,10.29
2022-12-23T18:54:28.060Z,10.29
2022-12-23T18:55:29.300Z,10.28
2022-12-23T18:56:27.957Z,10.26
2022-12-23T18:57:28.260Z,10.31
2022-12-23T18:58:27.960Z,10.31
2022-12-23T18:59:30.248Z,10.35
2022-12-23T19:00:27.898Z,10.34
2022-12-23T19:01:28.197Z,10.32
2022-12-23T19:02:27.915Z,10.35
2022-12-23T19:03:28.960Z,10.36
2022-12-23T19:04:28.678Z,10.36
2022-12-23T19:09:57.439Z,10.39
2022-12-23T19:10:58.252Z,10.36
2022-12-23T19:11:58.458Z,10.36
2022-12-23T19:12:58.198Z,10.38
2022-12-23T19:13:58.628Z,10.38
2022-12-23T19:14:58.207Z,10.39
2022-12-23T19:15:59.613Z,10.38
2022-12-23T19:16:58.187Z,10.35
2022-12-23T19:17:58.402Z,10.34
2022-12-23T19:18:58.216Z,10.29
2022-12-23T19:20:00.402Z,10.28
2022-12-23T19:20:58.151Z,10.25
2022-12-23T19:21:59.433Z,10.20
2022-12-23T19:22:58.107Z,10.22
2022-12-23T19:23:58.339Z,10.20
2022-12-23T19:25:05.918Z,10.16
2022-12-23T19:25:58.107Z,10.16
2022-12-23T19:27:00.423Z,10.13
2022-12-23T19:27:58.071Z,10.13
2022-12-23T19:28:58.302Z,10.13
2022-12-23T19:29:58.036Z,10.16
2022-12-23T19:30:58.290Z,10.17
2022-12-23T19:31:59.611Z,10.17
2022-12-23T19:32:59.202Z,10.16
2022-12-23T19:33:58.012Z,10.18
2022-12-23T19:34:58.194Z,10.18
2022-12-23T19:35:58.011Z,10.14
2022-12-23T19:36:58.244Z,10.14
2022-12-23T19:38:19.011Z,10.16
2022-12-23T19:38:57.949Z,10.17
2022-12-23T19:39:58.129Z,10.17
2022-12-23T19:40:57.920Z,10.18
2022-12-23T19:41:58.040Z,10.22
2022-12-23T19:42:58.093Z,10.22
2022-12-23T19:43:58.669Z,10.24
2022-12-23T19:44:58.104Z,10.24
2022-12-23T19:45:57.936Z,10.24
2022-12-23T19:46:58.074Z,10.25
2022-12-23T19:47:58.128Z,10.26
2022-12-23T19:48:57.845Z,10.28
2022-12-23T19:49:58.113Z,10.25
2022-12-23T19:50:57.842Z,10.28
2022-12-23T19:51:58.121Z,10.29
2022-12-23T19:52:57.795Z,10.31
2022-12-23T19:53:58.051Z,10.31
2022-12-23T19:54:57.775Z,10.32
2022-12-23T19:55:59.232Z,10.29
2022-12-23T19:56:57.770Z,10.29
2022-12-23T19:57:57.967Z,10.29
2022-12-23T19:58:57.774Z,10.32
2022-12-23T19:59:57.804Z,10.29
2022-12-23T20:00:57.705Z,10.29
2022-12-23T20:01:58.926Z,10.29
2022-12-23T20:02:59.132Z,10.29
2022-12-23T20:03:57.913Z,10.29
2022-12-23T20:04:57.695Z,10.28
2022-12-23T20:05:57.741Z,10.28
2022-12-23T20:06:57.644Z,10.28
2022-12-23T20:07:57.724Z,10.31
2022-12-23T20:09:00.551Z,10.29
2022-12-23T20:09:58.650Z,10.31
2022-12-23T20:10:57.603Z,10.32
2022-12-23T20:11:57.773Z,10.35
2022-12-23T20:12:57.574Z,10.38
2022-12-23T20:13:57.762Z,10.38
2022-12-23T20:14:57.593Z,10.38
2022-12-23T20:15:57.629Z,10.38
2022-12-23T20:16:57.532Z,10.42
2022-12-23T20:17:57.589Z,10.39
2022-12-23T20:18:57.534Z,10.42
2022-12-23T20:19:57.616Z,10.44
2022-12-23T20:20:57.530Z,10.43
2022-12-23T20:21:58.676Z,10.43
2022-12-23T20:22:57.620Z,10.39
2022-12-23T20:23:57.533Z,10.42
2022-12-23T20:24:57.465Z,10.44
2022-12-23T20:25:57.545Z,10.46
2022-12-23T20:26:57.438Z,10.44
2022-12-23T20:27:57.461Z,10.39
2022-12-23T20:28:57.483Z,10.34
2022-12-23T20:29:57.420Z,10.32
2022-12-23T20:30:57.537Z,10.32
2022-12-23T20:31:57.376Z,10.34
2022-12-23T20:32:57.518Z,10.31
2022-12-23T20:33:57.508Z,10.26
2022-12-23T20:34:57.340Z,10.28
2022-12-23T20:35:57.486Z,10.29
2022-12-23T20:36:57.314Z,10.26
2022-12-23T20:37:57.547Z,10.28
2022-12-23T20:38:57.532Z,10.28
2022-12-23T20:39:57.289Z,10.29
2022-12-23T20:40:57.440Z,10.31
2022-12-23T20:41:57.277Z,10.32
2022-12-23T20:42:57.446Z,10.34
2022-12-23T20:44:32.540Z,10.35
2022-12-23T20:44:57.261Z,10.35
2022-12-23T20:45:57.368Z,10.35
2022-12-23T20:46:57.368Z,10.34
2022-12-23T20:47:57.241Z,10.31
2022-12-23T20:48:57.399Z,10.31
2022-12-23T20:49:57.188Z,10.32
2022-12-23T20:50:57.244Z,10.31
2022-12-23T20:51:57.160Z,10.31
2022-12-23T20:52:59.381Z,10.31
2022-12-23T20:53:57.160Z,10.31
2022-12-23T20:54:57.376Z,10.29
2022-12-23T20:55:58.437Z,10.25
2022-12-23T20:56:58.419Z,10.28
2022-12-23T20:57:57.114Z,10.25
2022-12-23T20:58:57.154Z,10.24
2022-12-23T20:59:57.138Z,10.20
2022-12-23T21:00:57.167Z,10.20
2022-12-23T21:01:57.119Z,10.17
2022-12-23T21:02:57.157Z,10.16
2022-12-23T21:03:57.046Z,10.13
2022-12-23T21:04:57.207Z,10.13
2022-12-23T21:05:57.052Z,10.14
2022-12-23T21:06:57.107Z,10.13
2022-12-23T21:07:57.041Z,10.13
2022-12-23T21:08:57.023Z,10.13
2022-12-23T21:09:57.003Z,10.13
2022-12-23T21:10:57.096Z,10.13
2022-12-23T21:11:56.963Z,10.11
2022-12-23T21:12:58.686Z,10.10
2022-12-23T21:14:01.118Z,10.09
2022-12-23T21:14:56.920Z,10.04
2022-12-23T21:15:57.215Z,10.06
2022-12-23T21:16:56.926Z,10.06
2022-12-23T21:17:56.999Z,10.06
2022-12-23T21:18:56.882Z,10.02
2022-12-23T21:19:59.331Z,10.01
2022-12-23T21:20:56.855Z,9.98